createdAt,value
2022-12-12T00:01:51.479Z,-2.17
2022-12-12T00:04:18.232Z,-2.18
2022-12-12T00:06:45.327Z,-2.16
2022-12-12T00:09:12.834Z,-2.17
2022-12-12T00:11:40.033Z,-2.19
2022-12-12T00:14:06.720Z,-2.21
2022-12-12T00:16:33.473Z,-2.22
2022-12-12T00:19:00.244Z,-2.31
2022-12-12T00:21:29.207Z,-2.30
2022-12-12T00:23:57.409Z,-2.27
2022-12-12T00:26:30.041Z,-2.30
2022-12-12T00:28:58.088Z,-2.28
2022-12-12T00:31:25.062Z,-2.26
2022-12-12T00:33:52.159Z,-2.25
2022-12-12T00:36:22.942Z,-2.26
2022-12-12T00:38:50.227Z,-2.26
2022-12-12T00:41:16.923Z,-2.25
2022-12-12T00:43:43.622Z,-2.25
2022-12-12T00:46:22.054Z,-2.26
2022-12-12T00:48:49.120Z,-2.26
2022-12-12T00:51:22.197Z,-2.33
2022-12-12T00:53:50.335Z,-2.24
2022-12-12T00:56:19.063Z,-2.27
2022-12-12T00:58:46.030Z,-2.25
2022-12-12T01:01:20.542Z,-2.25
2022-12-12T01:03:47.697Z,-2.26
2022-12-12T01:06:14.385Z,-2.22
2022-12-12T01:08:41.704Z,-2.26
2022-12-12T01:11:10.420Z,-2.20
2022-12-12T01:13:38.043Z,-2.20
2022-12-12T01:16:06.733Z,-2.20
2022-12-12T01:18:33.938Z,-2.18
2022-12-12T01:21:00.917Z,-2.19
2022-12-12T01:23:28.019Z,-2.18
2022-12-12T01:26:07.542Z,-2.21
2022-12-12T01:28:35.502Z,-2.22
2022-12-12T01:31:02.321Z,-2.24
2022-12-12T01:33:29.466Z,-2.24
2022-12-12T01:35:56.824Z,-2.24
2022-12-12T01:38:24.747Z,-2.23
2022-12-12T01:40:52.780Z,-2.25
2022-12-12T01:43:21.423Z,-2.27
2022-12-12T01:46:01.026Z,-2.29
2022-12-12T01:48:39.267Z,-2.53
2022-12-12T01:51:10.958Z,-2.36
2022-12-12T01:53:37.957Z,-2.33
2022-12-12T01:56:12.496Z,-2.32
2022-12-12T01:58:45.507Z,-2.32
2022-12-12T02:01:13.303Z,-2.39
2022-12-12T02:03:41.602Z,-2.37
2022-12-12T02:06:13.047Z,-2.37
2022-12-12T02:08:41.059Z,-2.45
2022-12-12T02:11:07.776Z,-2.43
2022-12-12T02:13:35.479Z,-2.47
2022-12-12T02:16:08.365Z,-2.50
2022-12-12T02:18:52.519Z,-2.57
2022-12-12T02:21:44.398Z,-2.62
2022-12-12T02:24:45.032Z,-2.70
2022-12-12T02:27:40.910Z,-2.79
2022-12-12T02:30:12.713Z,-2.84
2022-12-12T02:33:04.171Z,-2.81
2022-12-12T02:35:33.642Z,-2.85
2022-12-12T02:38:29.558Z,-2.92
2022-12-12T02:41:03.543Z,-2.99
2022-12-12T02:43:47.855Z,-3.03
2022-12-12T02:46:28.210Z,-3.06
2022-12-12T02:49:09.985Z,-3.08
2022-12-12T02:51:38.219Z,-3.10
2022-12-12T02:54:11.925Z,-3.11
2022-12-12T02:56:46.883Z,-3.13
2022-12-12T02:59:37.261Z,-3.24
2022-12-12T03:02:22.453Z,-3.21
2022-12-12T03:05:32.451Z,-3.25
2022-12-12T03:08:36.836Z,-3.27
2022-12-12T03:11:08.214Z,-3.28
2022-12-12T03:13:47.046Z,-3.28
2022-12-12T03:16:30.663Z,-3.28
2022-12-12T03:18:57.547Z,-3.26
2022-12-12T03:21:38.163Z,-3.24
2022-12-12T03:24:33.672Z,-3.22
2022-12-12T03:27:23.986Z,-3.23
2022-12-12T03:30:17.790Z,-3.27
2022-12-12T03:33:03.544Z,-3.33
2022-12-12T03:35:40.350Z,-3.40
2022-12-12T03:38:15.324Z,-3.50
2022-12-12T03:40:52.376Z,-3.44
2022-12-12T03:43:25.062Z,-3.39
2022-12-12T03:45:55.093Z,-3.46
2022-12-12T03:48:34.910Z,-3.42
2022-12-12T03:51:09.015Z,-3.51
2022-12-12T03:53:43.919Z,-3.48
2022-12-12T03:56:31.786Z,-3.53
2022-12-12T03:59:01.391Z,-3.56
2022-12-12T04:01:36.798Z,-3.57
2022-12-12T04:04:15.732Z,-3.53
2022-12-12T04:06:48.846Z,-3.50
2022-12-12T04:09:38.759Z,-3.58
2022-12-12T04:12:44.981Z,-3.60
2022-12-12T04:15:33.450Z,-3.75
2022-12-12T04:18:14.034Z,-3.88
2022-12-12T04:21:09.908Z,-3.97
2022-12-12T04:24:01.799Z,-3.99
2022-12-12T04:26:39.735Z,-3.99
2022-12-12T04:29:33.875Z,-4.05
2022-12-12T04:32:24.534Z,-4.16
2022-12-12T04:34:57.529Z,-4.09
2022-12-12T04:37:29.332Z,-4.05
2022-12-12T04:40:00.559Z,-4.10
2022-12-12T04:42:32.570Z,-4.03
2022-12-12T04:45:20.479Z,-4.07
2022-12-12T04:47:50.464Z,-3.96
2022-12-12T04:50:18.866Z,-3.83
2022-12-12T04:52:48.873Z,-3.67
2022-12-12T04:55:22.051Z,-3.67
2022-12-12T04:57:51.174Z,-3.74
2022-12-12T05:00:20.077Z,-3.80
2022-12-12T05:02:55.558Z,-3.82
2022-12-12T05:05:29.805Z,-3.89
2022-12-12T05:08:02.877Z,-3.96
2022-12-12T05:10:30.349Z,-4.02
2022-12-12T05:13:00.243Z,-3.98
2022-12-12T05:15:28.331Z,-3.85
2022-12-12T05:18:05.528Z,-3.89
2022-12-12T05:20:32.427Z,-3.98
2022-12-12T05:22:59.395Z,-4.23
2022-12-12T05:25:26.678Z,-4.31
2022-12-12T05:27:53.352Z,-4.42
2022-12-12T05:30:20.106Z,-4.50
2022-12-12T05:32:47.848Z,-4.55
2022-12-12T05:35:14.827Z,-4.59
2022-12-12T05:37:45.434Z,-4.62
2022-12-12T05:40:15.108Z,-4.62
2022-12-12T05:42:41.995Z,-4.41
2022-12-12T05:45:10.575Z,-4.29
2022-12-12T05:47:38.080Z,-4.21
2022-12-12T05:50:05.312Z,-4.19
2022-12-12T05:52:32.074Z,-4.27
2022-12-12T05:54:58.911Z,-4.59
2022-12-12T05:57:25.722Z,-4.69
2022-12-12T05:59:52.437Z,-4.78
2022-12-12T06:02:19.459Z,-4.79
2022-12-12T06:04:47.704Z,-4.93
2022-12-12T06:07:14.493Z,-4.78
2022-12-12T06:09:41.247Z,-4.75
2022-12-12T06:12:08.096Z,-4.91
2022-12-12T06:14:36.092Z,-4.88
2022-12-12T06:17:03.474Z,-5.09
2022-12-12T06:19:30.237Z,-5.17
2022-12-12T06:21:57.014Z,-5.26
2022-12-12T06:24:23.756Z,-5.46
2022-12-12T06:26:50.459Z,-5.36
2022-12-12T06:29:17.186Z,-5.32
2022-12-12T06:31:43.984Z,-5.36
2022-12-12T06:34:10.777Z,-5.33
2022-12-12T06:36:38.059Z,-5.28
2022-12-12T06:39:04.680Z,-5.26
2022-12-12T06:41:32.193Z,-5.24
2022-12-12T06:43:59.214Z,-5.22
2022-12-12T06:46:28.105Z,-5.16
2022-12-12T06:48:56.369Z,-5.12
2022-12-12T06:51:26.396Z,-5.13
2022-12-12T06:53:53.350Z,-5.07
2022-12-12T06:56:23.521Z,-5.06
2022-12-12T06:58:51.272Z,-5.06
2022-12-12T07:01:20.417Z,-5.02
2022-12-12T07:03:49.542Z,-4.84
2022-12-12T07:06:18.462Z,-4.66
2022-12-12T07:08:45.178Z,-4.42
2022-12-12T07:11:15.027Z,-4.31
2022-12-12T07:13:42.011Z,-4.29
2022-12-12T07:16:09.092Z,-4.17
2022-12-12T07:18:36.070Z,-4.22
2022-12-12T07:21:08.328Z,-4.25
2022-12-12T07:23:36.792Z,-4.21
2022-12-12T07:26:10.007Z,-4.05
2022-12-12T07:28:38.253Z,-3.93
2022-12-12T07:31:10.037Z,-3.89
2022-12-12T07:33:43.797Z,-3.80
2022-12-12T07:36:13.053Z,-3.58
2022-12-12T07:38:39.993Z,-3.26
2022-12-12T07:41:10.073Z,-3.14
2022-12-12T07:43:41.548Z,-2.66
2022-12-12T07:46:12.389Z,-2.97
2022-12-12T07:48:39.145Z,-3.13
2022-12-12T07:51:06.078Z,-2.93
2022-12-12T07:53:33.407Z,-2.61
2022-12-12T07:56:00.012Z,-2.39
2022-12-12T07:58:27.305Z,-2.19
2022-12-12T08:00:54.067Z,-2.08
2022-12-12T08:03:20.863Z,-2.17
2022-12-12T08:05:47.672Z,-2.00
2022-12-12T08:08:14.466Z,-2.00
2022-12-12T08:10:41.367Z,-1.90
2022-12-12T08:13:08.495Z,-1.61
2022-12-12T08:15:35.183Z,-1.42
2022-12-12T08:18:02.090Z,-0.91
2022-12-12T08:20:29.315Z,-0.36
2022-12-12T08:22:55.999Z,0.12
2022-12-12T08:25:22.726Z,0.52
2022-12-12T08:27:49.495Z,0.74
2022-12-12T08:30:16.489Z,1.00
2022-12-12T08:32:43.292Z,1.25
2022-12-12T08:35:10.213Z,1.57
2022-12-12T08:37:37.171Z,1.67
2022-12-12T08:40:04.375Z,1.74
2022-12-12T08:42:30.956Z,1.94
2022-12-12T08:44:57.699Z,2.15
2022-12-12T08:47:24.484Z,2.21
2022-12-12T08:49:51.172Z,2.31
2022-12-12T08:52:17.994Z,2.26
2022-12-12T08:54:44.714Z,2.16
2022-12-12T08:57:11.421Z,2.27
2022-12-12T08:59:38.156Z,2.22
2022-12-12T09:02:04.928Z,2.26
2022-12-12T09:04:31.881Z,2.10
2022-12-12T09:07:01.298Z,2.11
2022-12-12T09:09:30.378Z,2.07
2022-12-12T09:11:57.043Z,1.89
2022-12-12T09:14:23.766Z,1.35
2022-12-12T09:16:50.518Z,0.98
2022-12-12T09:19:17.312Z,0.87
2022-12-12T09:21:44.013Z,0.64
2022-12-12T09:24:11.110Z,0.57
2022-12-12T09:26:38.181Z,0.47
2022-12-12T09:29:06.135Z,0.44
2022-12-12T09:31:32.998Z,0.53
2022-12-12T09:33:59.813Z,0.62
2022-12-12T09:36:26.564Z,0.54
2022-12-12T09:38:53.317Z,0.50
2022-12-12T09:41:23.603Z,0.42
2022-12-12T09:44:06.541Z,0.63
2022-12-12T09:46:39.836Z,0.99
2022-12-12T09:49:15.478Z,1.24
2022-12-12T09:51:46.015Z,1.60
2022-12-12T09:54:20.695Z,1.17
2022-12-12T09:57:30.774Z,1.62
2022-12-12T10:00:10.487Z,2.06
2022-12-12T10:03:05.019Z,2.62
2022-12-12T10:05:46.330Z,2.39
2022-12-12T10:08:21.418Z,2.26
2022-12-12T10:10:55.850Z,1.92
2022-12-12T10:13:28.441Z,2.52
2022-12-12T10:16:09.796Z,3.25
2022-12-12T10:18:43.555Z,3.12
2022-12-12T10:21:20.105Z,1.78
2022-12-12T10:23:58.607Z,1.79
2022-12-12T10:26:28.966Z,1.78
2022-12-12T10:29:01.535Z,1.65
2022-12-12T10:31:52.363Z,1.10
2022-12-12T10:34:28.076Z,1.10
2022-12-12T10:37:32.383Z,0.98
2022-12-12T10:40:11.313Z,1.08
2022-12-12T10:42:41.671Z,1.53
2022-12-12T10:45:24.049Z,2.18
2022-12-12T10:47:51.113Z,3.19
2022-12-12T10:50:27.141Z,3.38
2022-12-12T10:52:55.018Z,3.21
2022-12-12T10:55:37.378Z,2.42
2022-12-12T10:58:05.474Z,2.59
2022-12-12T11:00:35.981Z,3.18
2022-12-12T11:03:35.515Z,3.78
2022-12-12T11:06:10.545Z,3.32
2022-12-12T11:08:37.495Z,3.37
2022-12-12T11:11:20.565Z,3.54
2022-12-12T11:13:52.425Z,3.13
2022-12-12T11:16:26.260Z,2.97
2022-12-12T11:19:05.970Z,3.29
2022-12-12T11:21:36.073Z,3.39
2022-12-12T11:24:12.130Z,2.65
2022-12-12T11:26:46.542Z,2.17
2022-12-12T11:29:28.751Z,2.92
2022-12-12T11:31:56.575Z,2.82
2022-12-12T11:34:26.394Z,2.72
2022-12-12T11:36:53.957Z,3.01
2022-12-12T11:39:29.026Z,3.69
2022-12-12T11:42:15.673Z,3.64
2022-12-12T11:44:44.603Z,3.46
2022-12-12T11:47:29.473Z,3.26
2022-12-12T11:50:02.850Z,3.57
2022-12-12T11:52:34.088Z,4.27
2022-12-12T11:55:01.044Z,4.56
2022-12-12T11:57:34.338Z,4.22
2022-12-12T12:00:00.984Z,3.74
2022-12-12T12:02:49.329Z,2.86
2022-12-12T12:05:18.726Z,3.04
2022-12-12T12:07:54.592Z,3.17
2022-12-12T12:10:29.027Z,3.05
2022-12-12T12:13:13.630Z,3.46
2022-12-12T12:16:32.839Z,4.09
2022-12-12T12:19:27.267Z,3.60
2022-12-12T12:22:08.955Z,4.12
2022-12-12T12:25:13.260Z,3.61
2022-12-12T12:27:43.028Z,3.51
2022-12-12T12:30:09.829Z,3.08
2022-12-12T12:32:48.324Z,2.53
2022-12-12T12:35:31.214Z,2.85
2022-12-12T12:38:09.543Z,3.24
2022-12-12T12:40:47.939Z,2.87
2022-12-12T12:43:41.316Z,3.10
2022-12-12T12:46:13.920Z,3.29
2022-12-12T12:48:59.814Z,3.60
2022-12-12T12:51:35.534Z,3.68
2022-12-12T12:54:26.017Z,3.49
2022-12-12T12:57:02.833Z,3.75
2022-12-12T12:59:37.830Z,3.86
2022-12-12T13:02:34.427Z,3.70
2022-12-12T13:05:12.062Z,3.93
2022-12-12T13:08:22.917Z,4.15
2022-12-12T13:11:02.782Z,4.25
2022-12-12T13:13:36.619Z,4.61
2022-12-12T13:16:14.157Z,4.76
2022-12-12T13:18:45.497Z,5.11
2022-12-12T13:21:29.254Z,5.16
2022-12-12T13:24:10.380Z,5.07
2022-12-12T13:27:18.608Z,5.04
2022-12-12T13:29:53.979Z,4.61
2022-12-12T13:32:47.855Z,4.77
2022-12-12T13:35:42.483Z,4.77
2022-12-12T13:38:35.840Z,4.72
2022-12-12T13:41:07.717Z,4.93
2022-12-12T13:43:34.382Z,5.07
2022-12-12T13:46:28.732Z,5.06
2022-12-12T13:49:06.274Z,4.55
2022-12-12T13:51:35.655Z,4.69
2022-12-12T13:54:13.340Z,4.76
2022-12-12T13:56:52.937Z,4.53
2022-12-12T13:59:22.880Z,4.66
2022-12-12T14:01:52.171Z,4.96
2022-12-12T14:04:37.134Z,5.17
2022-12-12T14:07:12.822Z,5.40
2022-12-12T14:09:49.840Z,5.24
2022-12-12T14:12:33.301Z,4.98
2022-12-12T14:15:04.823Z,4.90
2022-12-12T14:17:40.071Z,4.91
2022-12-12T14:20:25.051Z,5.08
2022-12-12T14:22:51.711Z,5.13
2022-12-12T14:25:34.065Z,5.20
2022-12-12T14:28:19.427Z,4.66
2022-12-12T14:30:46.202Z,4.71
2022-12-12T14:33:16.241Z,4.44
2022-12-12T14:35:58.762Z,4.11
2022-12-12T14:38:49.552Z,3.79
2022-12-12T14:41:22.940Z,3.73
2022-12-12T14:44:36.321Z,3.39
2022-12-12T14:46:42.614Z,3.10
2022-12-12T14:49:14.145Z,2.78
2022-12-12T14:51:41.696Z,2.32
2022-12-12T14:54:17.978Z,1.92
2022-12-12T14:56:52.726Z,1.61
2022-12-12T14:59:26.423Z,1.27
2022-12-12T15:01:59.734Z,1.04
2022-12-12T15:04:30.538Z,0.91
2022-12-12T15:07:02.262Z,0.66
2022-12-12T15:09:31.476Z,0.50
2022-12-12T15:12:10.636Z,0.35
2022-12-12T15:14:40.090Z,0.15
2022-12-12T15:17:17.074Z,0.03
2022-12-12T15:19:47.501Z,-0.06
2022-12-12T15:22:25.043Z,-0.18
2022-12-12T15:24:54.006Z,-0.16
2022-12-12T15:27:28.203Z,-0.27
2022-12-12T15:29:56.970Z,-0.33
2022-12-12T15:32:26.088Z,-0.52
2022-12-12T15:35:16.435Z,-0.54
2022-12-12T15:37:43.419Z,-0.83
2022-12-12T15:40:10.131Z,-1.02
2022-12-12T15:42:43.284Z,-1.12
2022-12-12T15:45:34.915Z,-1.38
2022-12-12T15:48:02.251Z,-1.41
2022-12-12T15:50:42.231Z,-1.53
2022-12-12T15:53:33.110Z,-1.48
2022-12-12T15:56:03.204Z,-1.45
2022-12-12T15:58:42.171Z,-1.47
2022-12-12T16:01:21.321Z,-1.61
2022-12-12T16:04:25.057Z,-1.88
2022-12-12T16:06:51.992Z,-1.82
2022-12-12T16:09:22.195Z,-1.62
2022-12-12T16:11:53.644Z,-1.53
2022-12-12T16:14:24.975Z,-1.52
2022-12-12T16:17:21.252Z,-1.45
2022-12-12T16:19:56.544Z,-1.48
2022-12-12T16:22:39.743Z,-1.62
2022-12-12T16:25:24.043Z,-1.88
2022-12-12T16:28:09.840Z,-1.89
2022-12-12T16:30:40.798Z,-1.92
2022-12-12T16:33:24.554Z,-1.94
2022-12-12T16:35:51.572Z,-1.96
2022-12-12T16:38:19.050Z,-2.00
2022-12-12T16:40:51.970Z,-2.12
2022-12-12T16:43:21.624Z,-2.27
2022-12-12T16:45:54.007Z,-2.34
2022-12-12T16:48:23.336Z,-2.43
2022-12-12T16:50:52.455Z,-2.50
2022-12-12T16:53:19.982Z,-2.60
2022-12-12T16:55:49.604Z,-2.47
2022-12-12T16:58:17.748Z,-2.29
2022-12-12T17:00:45.344Z,-2.29
2022-12-12T17:03:16.516Z,-2.36
2022-12-12T17:05:45.943Z,-2.50
2022-12-12T17:08:15.153Z,-2.58
2022-12-12T17:10:42.773Z,-2.70
2022-12-12T17:13:16.238Z,-2.77
2022-12-12T17:15:43.180Z,-2.82
2022-12-12T17:18:11.261Z,-2.80
2022-12-12T17:20:38.290Z,-2.73
2022-12-12T17:25:51.023Z,-2.72
2022-12-12T17:28:19.820Z,-2.85
2022-12-12T17:30:49.924Z,-2.99
2022-12-12T17:33:19.910Z,-3.11
2022-12-12T17:35:46.934Z,-3.20
2022-12-12T17:38:16.440Z,-3.27
2022-12-12T17:40:43.646Z,-3.32
2022-12-12T17:43:10.838Z,-3.35
2022-12-12T17:45:37.813Z,-3.41
2022-12-12T17:48:05.165Z,-3.44
2022-12-12T17:50:34.033Z,-3.46
2022-12-12T17:53:03.887Z,-3.41
2022-12-12T17:55:54.088Z,-3.37
2022-12-12T17:58:17.267Z,-3.35
2022-12-12T18:00:44.040Z,-3.36
2022-12-12T18:03:10.756Z,-3.39
2022-12-12T18:05:37.450Z,-3.46
2022-12-12T18:08:04.484Z,-3.50
2022-12-12T18:10:31.215Z,-3.55
2022-12-12T18:12:58.476Z,-3.56
2022-12-12T18:15:25.491Z,-3.55
2022-12-12T18:17:52.220Z,-3.55
2022-12-12T18:20:20.068Z,-3.57
2022-12-12T18:22:47.618Z,-3.63
2022-12-12T18:25:14.322Z,-3.68
2022-12-12T18:27:41.029Z,-3.74
2022-12-12T18:30:08.321Z,-3.81
2022-12-12T18:32:34.987Z,-3.89
2022-12-12T18:35:03.136Z,-3.96
2022-12-12T18:37:29.861Z,-4.05
2022-12-12T18:39:56.559Z,-4.11
2022-12-12T18:42:23.278Z,-4.13
2022-12-12T18:44:49.962Z,-4.17
2022-12-12T18:47:16.691Z,-4.20
2022-12-12T18:49:43.660Z,-4.11
2022-12-12T18:52:10.451Z,-4.14
2022-12-12T18:54:37.540Z,-4.24
2022-12-12T18:57:04.336Z,-4.30
2022-12-12T18:59:31.934Z,-4.46
2022-12-12T19:01:58.714Z,-4.48
2022-12-12T19:04:25.413Z,-4.04
2022-12-12T19:06:52.970Z,-3.97
2022-12-12T19:09:21.189Z,-3.89
2022-12-12T19:11:49.224Z,-3.87
2022-12-12T19:14:16.674Z,-4.01
2022-12-12T19:16:44.572Z,-3.80
2022-12-12T19:19:12.239Z,-3.82
2022-12-12T19:21:41.005Z,-3.87
2022-12-12T19:24:12.549Z,-4.01
2022-12-12T19:26:41.549Z,-4.10
2022-12-12T19:29:11.715Z,-4.28
2022-12-12T19:31:39.229Z,-4.40
2022-12-12T19:34:08.624Z,-4.47
2022-12-12T19:36:36.346Z,-4.53
2022-12-12T19:39:06.559Z,-4.44
2022-12-12T19:41:35.294Z,-4.40
2022-12-12T19:44:04.523Z,-4.36
2022-12-12T19:46:33.343Z,-4.40
2022-12-12T19:49:05.065Z,-4.54
2022-12-12T19:51:36.314Z,-4.65
2022-12-12T19:54:09.179Z,-4.73
2022-12-12T19:56:39.157Z,-4.81
2022-12-12T19:59:06.949Z,-4.82
2022-12-12T20:01:36.877Z,-4.87
2022-12-12T20:04:09.827Z,-4.81
2022-12-12T20:06:47.050Z,-4.79
2022-12-12T20:09:26.194Z,-4.85
2022-12-12T20:11:54.516Z,-4.92
2022-12-12T20:14:24.023Z,-5.02
2022-12-12T20:16:52.472Z,-5.07
2022-12-12T20:19:22.125Z,-5.19
2022-12-12T20:22:01.605Z,-5.28
2022-12-12T20:24:30.584Z,-5.42
2022-12-12T20:27:00.309Z,-5.46
2022-12-12T20:29:28.705Z,-5.45
2022-12-12T20:31:56.139Z,-5.34
2022-12-12T20:34:24.841Z,-5.11
2022-12-12T20:36:55.995Z,-4.95
2022-12-12T20:39:26.656Z,-4.75
2022-12-12T20:41:55.248Z,-4.71
2022-12-12T20:44:24.942Z,-4.70
2022-12-12T20:46:54.121Z,-4.80
2022-12-12T20:49:24.223Z,-4.81
2022-12-12T20:51:57.046Z,-4.93
2022-12-12T20:54:27.763Z,-5.09
2022-12-12T20:56:56.412Z,-5.22
2022-12-12T20:59:24.594Z,-5.26
2022-12-12T21:01:52.301Z,-5.23
2022-12-12T21:04:20.095Z,-5.16
2022-12-12T21:06:51.176Z,-5.16
2022-12-12T21:09:24.542Z,-5.25
2022-12-12T21:11:58.469Z,-5.53
2022-12-12T21:14:30.857Z,-5.71
2022-12-12T21:16:59.408Z,-5.82
2022-12-12T21:19:26.387Z,-5.84
2022-12-12T21:21:54.439Z,-5.85
2022-12-12T21:24:22.844Z,-5.80
2022-12-12T21:26:50.961Z,-5.65
2022-12-12T21:29:18.875Z,-5.58
2022-12-12T21:31:51.411Z,-5.62
2022-12-12T21:34:23.717Z,-5.72
2022-12-12T21:36:54.913Z,-5.82
2022-12-12T21:39:26.789Z,-5.89
2022-12-12T21:41:54.838Z,-5.99
2022-12-12T21:44:21.971Z,-6.05
2022-12-12T21:46:49.149Z,-6.11
2022-12-12T21:49:31.114Z,-6.07
2022-12-12T21:52:00.961Z,-6.00
2022-12-12T21:54:29.516Z,-6.00
2022-12-12T21:56:58.711Z,-6.07
2022-12-12T21:59:26.596Z,-6.10
2022-12-12T22:01:58.706Z,-6.12
2022-12-12T22:04:26.187Z,-6.16
2022-12-12T22:06:52.983Z,-6.12
2022-12-12T22:09:20.578Z,-6.14
2022-12-12T22:11:50.382Z,-6.11
2022-12-12T22:14:21.360Z,-6.04
2022-12-12T22:16:48.325Z,-6.13
2022-12-12T22:19:16.259Z,-6.19
2022-12-12T22:21:46.374Z,-6.26
2022-12-12T22:24:13.788Z,-6.32
2022-12-12T22:26:43.562Z,-6.27
2022-12-12T22:29:14.135Z,-5.98
2022-12-12T22:31:41.629Z,-5.80
2022-12-12T22:34:12.304Z,-5.83
2022-12-12T22:36:40.489Z,-5.85
2022-12-12T22:39:10.396Z,-5.92
2022-12-12T22:41:37.105Z,-6.03
2022-12-12T22:44:06.080Z,-6.10
2022-12-12T22:46:36.995Z,-6.12
2022-12-12T22:49:11.263Z,-6.14
2022-12-12T22:51:38.181Z,-6.27
2022-12-12T22:54:05.681Z,-6.31
2022-12-12T22:56:34.734Z,-6.39
2022-12-12T22:59:01.699Z,-6.44
2022-12-12T23:01:29.340Z,-6.46
2022-12-12T23:03:56.445Z,-6.51
2022-12-12T23:06:24.749Z,-6.61
2022-12-12T23:08:53.901Z,-6.63
2022-12-12T23:11:23.142Z,-6.64
2022-12-12T23:13:50.647Z,-6.62
2022-12-12T23:16:21.063Z,-6.58
2022-12-12T23:18:48.673Z,-6.57
2022-12-12T23:21:18.477Z,-6.59
2022-12-12T23:23:46.091Z,-6.64
2022-12-12T23:26:16.539Z,-6.67
2022-12-12T23:28:44.100Z,-6.76
2022-12-12T23:31:13.587Z,-6.84
2022-12-12T23:33:40.804Z,-6.86
2022-12-12T23:36:08.285Z,-6.87
2022-12-12T23:38:35.223Z,-6.86
2022-12-12T23:41:06.766Z,-6.88
2022-12-12T23:43:34.086Z,-6.92
2022-12-12T23:46:02.524Z,-6.94
2022-12-12T23:48:30.159Z,-6.93
2022-12-12T23:50:58.056Z,-6.92
2022-12-12T23:53:24.772Z,-6.88
2022-12-12T23:55:51.700Z,-6.87
2022-12-12T23:58:18.463Z,-6.83
